Time;durP1;ratioP1;P1;durP2;ratioP2;P2;SDS_P1;SDS_P2;PMS_P1;PMS_P2;Temp;Humidity;BMP_temperature;BMP_pressure;BME280_temperature;BME280_humidity;BME280_pressure;Samples;Min_cycle;Max_cycle;Signal;HPM_P1;HPM_P2
2023/01/02 00:00:32;;;;;;;2.10;1.00;;;9.30;99.90;;;;;;5088626;28;20941;-69
2023/01/02 00:02:59;;;;;;;2.45;1.33;;;9.30;99.90;;;;;;5094193;28;20952;-69
2023/01/02 00:05:26;;;;;;;0.70;0.70;;;9.30;99.90;;;;;;5086441;28;20429;-69
2023/01/02 00:07:53;;;;;;;1.05;0.93;;;9.30;99.90;;;;;;5087156;28;20510;-69
2023/01/02 00:10:23;;;;;;;0.70;0.70;;;9.30;99.90;;;;;;5097691;28;20434;-68
2023/01/02 00:12:52;;;;;;;0.80;0.70;;;9.30;99.90;;;;;;5073411;28;20432;-68
2023/01/02 00:15:19;;;;;;;0.70;0.70;;;9.30;99.90;;;;;;5096339;28;20535;-68
2023/01/02 00:17:49;;;;;;;2.30;1.00;;;9.30;99.90;;;;;;5105717;27;20418;-68
2023/01/02 00:20:15;;;;;;;1.02;0.93;;;9.20;99.90;;;;;;5084704;28;20422;-69
2023/01/02 00:22:42;;;;;;;0.50;0.50;;;9.20;99.90;;;;;;5093884;28;20440;-68
2023/01/02 00:25:09;;;;;;;1.88;1.20;;;9.20;99.90;;;;;;5084350;28;20438;-68
2023/01/02 00:27:39;;;;;;;2.70;1.15;;;9.30;99.90;;;;;;5092512;28;20428;-68
2023/01/02 00:30:06;;;;;;;0.57;0.57;;;9.20;99.90;;;;;;5094003;28;20924;-68
2023/01/02 00:32:33;;;;;;;1.67;0.88;;;9.20;99.90;;;;;;5080738;28;20453;-68
2023/01/02 00:34:59;;;;;;;2.10;0.90;;;9.30;99.90;;;;;;5098387;28;20438;-68
2023/01/02 00:37:26;;;;;;;0.90;0.52;;;9.30;99.90;;;;;;5085701;28;20507;-68
2023/01/02 00:39:53;;;;;;;0.52;0.52;;;9.30;99.90;;;;;;5089364;28;20426;-68
2023/01/02 00:42:22;;;;;;;0.90;0.67;;;9.40;99.90;;;;;;5086925;28;20428;-68
2023/01/02 00:44:49;;;;;;;1.17;0.50;;;9.40;99.90;;;;;;5099334;28;20511;-68
2023/01/02 00:47:19;;;;;;;0.80;0.80;;;9.50;99.90;;;;;;5077244;28;20767;-68
2023/01/02 00:49:45;;;;;;;0.70;0.70;;;9.50;99.90;;;;;;5085685;28;20810;-68
2023/01/02 00:52:15;;;;;;;1.45;0.75;;;9.50;99.90;;;;;;5089555;28;20425;-68
2023/01/02 00:54:42;;;;;;;0.68;0.68;;;9.40;99.90;;;;;;5088452;28;20519;-68
2023/01/02 00:57:09;;;;;;;1.80;1.30;;;9.40;99.90;;;;;;5084196;28;20423;-68
2023/01/02 00:59:35;;;;;;;0.30;0.30;;;9.40;99.90;;;;;;5087478;28;20451;-68
2023/01/02 01:02:02;;;;;;;0.80;0.80;;;9.30;99.90;;;;;;5085079;28;20482;-68
2023/01/02 01:04:34;;;;;;;1.23;1.08;;;9.30;99.90;;;;;;5087012;28;20506;-68
2023/01/02 01:07:01;;;;;;;0.60;0.60;;;9.30;99.90;;;;;;5079607;28;20493;-68
2023/01/02 01:09:28;;;;;;;3.53;0.82;;;9.20;99.90;;;;;;5076783;28;20440;-68
2023/01/02 01:11:55;;;;;;;1.53;1.10;;;9.20;99.90;;;;;;5078686;28;20479;-68
2023/01/02 01:14:25;;;;;;;1.05;1.05;;;9.30;99.90;;;;;;5083431;28;20973;-68
2023/01/02 01:16:51;;;;;;;2.88;1.20;;;9.20;99.90;;;;;;5083407;28;20427;-68
2023/01/02 01:19:18;;;;;;;0.65;0.65;;;9.20;99.90;;;;;;5079576;28;20428;-68
2023/01/02 01:21:45;;;;;;;0.43;0.43;;;9.20;99.90;;;;;;5088361;28;20421;-68
2023/01/02 01:24:12;;;;;;;1.43;0.80;;;9.20;99.90;;;;;;5086850;28;20944;-68
2023/01/02 01:26:39;;;;;;;1.55;0.77;;;9.20;99.90;;;;;;5091597;28;20446;-68
2023/01/02 01:29:05;;;;;;;0.63;0.60;;;9.30;99.90;;;;;;5087697;28;20427;-68
2023/01/02 01:31:32;;;;;;;0.93;0.90;;;9.30;99.90;;;;;;5100089;28;20427;-68
2023/01/02 01:33:59;;;;;;;1.10;1.02;;;9.40;99.90;;;;;;5086370;28;20430;-68
2023/01/02 01:36:35;;;;;;;0.75;0.75;;;9.40;99.90;;;;;;5076260;28;20425;-68
2023/01/02 01:39:02;;;;;;;0.57;0.57;;;9.30;99.90;;;;;;5091691;28;20483;-68
2023/01/02 01:41:29;;;;;;;3.40;1.10;;;9.40;99.90;;;;;;5079964;28;20430;-68
2023/01/02 01:43:58;;;;;;;2.92;1.10;;;9.30;99.90;;;;;;5083904;28;20464;-68
2023/01/02 01:46:46;;;;;;;0.95;0.95;;;9.40;99.90;;;;;;5077620;28;20432;-68
2023/01/02 01:49:26;;;;;;;0.70;0.60;;;9.30;99.90;;;;;;5083976;28;20918;-68
2023/01/02 01:52:06;;;;;;;3.10;0.90;;;9.30;99.90;;;;;;5091980;28;20935;-68
2023/01/02 01:54:39;;;;;;;1.30;0.63;;;9.10;99.90;;;;;;5092050;28;20450;-68
2023/01/02 01:57:25;;;;;;;8.10;1.40;;;9.10;99.90;;;;;;5081070;28;20419;-68
2023/01/02 01:59:53;;;;;;;3.80;0.90;;;9.10;99.90;;;;;;5094583;28;20436;-68
2023/01/02 02:02:22;;;;;;;1.08;1.08;;;9.00;99.90;;;;;;5120566;27;20431;-68
2023/01/02 02:04:50;;;;;;;1.50;1.03;;;9.00;99.90;;;;;;5093617;28;20452;-68
2023/01/02 02:07:17;;;;;;;0.80;0.80;;;8.80;99.90;;;;;;5084265;28;20520;-68
2023/01/02 02:09:49;;;;;;;0.90;0.90;;;8.80;99.90;;;;;;5088671;28;20783;-68
2023/01/02 02:12:17;;;;;;;0.80;0.80;;;8.90;99.90;;;;;;5089410;28;20427;-68
2023/01/02 02:14:51;;;;;;;1.40;0.98;;;8.90;99.90;;;;;;5078117;28;20985;-68
2023/01/02 02:17:23;;;;;;;0.95;0.95;;;8.90;99.90;;;;;;5079497;28;20424;-68
2023/01/02 02:20:05;;;;;;;0.65;0.65;;;8.80;99.90;;;;;;5089540;28;20914;-68
2023/01/02 02:23:12;;;;;;;0.80;0.80;;;8.80;99.90;;;;;;5092660;28;20433;-68
2023/01/02 02:26:05;;;;;;;0.90;0.90;;;8.80;99.90;;;;;;5068053;28;21251;-68
2023/01/02 02:28:53;;;;;;;1.80;1.10;;;8.70;99.90;;;;;;5076856;28;20445;-68
2023/01/02 02:31:51;;;;;;;2.70;1.10;;;8.60;99.90;;;;;;5084706;28;20435;-68
2023/01/02 02:35:03;;;;;;;3.33;1.08;;;8.50;99.90;;;;;;5082227;28;20434;-68
2023/01/02 02:38:06;;;;;;;1.80;0.85;;;8.50;99.90;;;;;;5063825;28;20424;-68
2023/01/02 02:41:01;;;;;;;0.80;0.80;;;8.40;99.90;;;;;;5024027;28;20434;-68
2023/01/02 02:43:39;;;;;;;1.60;0.80;;;8.40;99.90;;;;;;5042681;28;21339;-68
2023/01/02 02:46:26;;;;;;;1.45;1.38;;;8.40;99.90;;;;;;5049458;28;20577;-68
2023/01/02 02:49:05;;;;;;;0.73;0.57;;;8.40;99.90;;;;;;5008936;28;20426;-68
2023/01/02 02:51:43;;;;;;;0.70;0.70;;;8.40;99.90;;;;;;5026739;28;20472;-67
2023/01/02 02:54:32;;;;;;;1.40;1.10;;;8.40;99.90;;;;;;5026556;28;21297;-67
2023/01/02 02:57:08;;;;;;;1.15;1.08;;;8.50;99.90;;;;;;5044881;28;20433;-67
2023/01/02 02:59:36;;;;;;;0.73;0.73;;;8.60;99.90;;;;;;5041513;28;20431;-67
2023/01/02 03:02:04;;;;;;;2.72;1.13;;;8.60;99.90;;;;;;5021512;28;20508;-67
2023/01/02 03:04:31;;;;;;;4.60;1.38;;;8.60;99.90;;;;;;5042210;28;20464;-67
2023/01/02 03:07:10;;;;;;;0.95;0.95;;;8.70;99.90;;;;;;5040149;28;20428;-68
2023/01/02 03:10:05;;;;;;;0.68;0.60;;;8.70;99.90;;;;;;5024516;28;20509;-68
2023/01/02 03:12:54;;;;;;;0.87;0.70;;;8.70;99.90;;;;;;5033945;28;20437;-68
2023/01/02 03:15:42;;;;;;;0.47;0.47;;;8.70;99.90;;;;;;5038810;28;20421;-68
2023/01/02 03:18:13;;;;;;;0.80;0.65;;;8.80;99.90;;;;;;5080548;28;20455;-68
2023/01/02 03:21:09;;;;;;;2.40;0.75;;;8.90;99.90;;;;;;5083715;28;20433;-69
2023/01/02 03:23:43;;;;;;;0.52;0.52;;;8.90;99.90;;;;;;5084282;28;20513;-69
2023/01/02 03:26:14;;;;;;;1.67;0.80;;;8.80;99.90;;;;;;5095659;28;20432;-69
2023/01/02 03:28:44;;;;;;;1.97;1.50;;;8.70;99.90;;;;;;5090071;28;20465;-69
2023/01/02 03:31:16;;;;;;;1.25;1.08;;;8.70;99.90;;;;;;5081261;28;20474;-69
2023/01/02 03:33:53;;;;;;;0.50;0.50;;;8.70;99.90;;;;;;5090290;28;20431;-69
2023/01/02 03:36:26;;;;;;;0.98;0.98;;;8.60;99.90;;;;;;5091996;28;20464;-69
2023/01/02 03:39:14;;;;;;;0.65;0.40;;;8.50;99.90;;;;;;5088006;28;20418;-68
2023/01/02 03:41:55;;;;;;;0.55;0.45;;;8.40;99.90;;;;;;5090750;28;20421;-69
2023/01/02 03:44:27;;;;;;;4.25;0.85;;;8.40;99.90;;;;;;5087579;28;20506;-69
2023/01/02 03:47:09;;;;;;;1.00;0.80;;;8.30;99.90;;;;;;5085090;28;20445;-69
2023/01/02 03:49:41;;;;;;;1.10;0.80;;;8.20;99.90;;;;;;5079350;28;20425;-69
2023/01/02 03:52:08;;;;;;;0.77;0.60;;;8.20;99.90;;;;;;5074765;28;20424;-69
2023/01/02 03:54:36;;;;;;;0.45;0.45;;;8.10;99.90;;;;;;5094693;28;20505;-69
2023/01/02 03:57:16;;;;;;;0.57;0.50;;;8.00;99.90;;;;;;5086592;28;20760;-69
2023/01/02 04:00:00;;;;;;;1.88;0.75;;;8.10;1.00;;;;;;5079824;28;20518;-69
2023/01/02 04:02:32;;;;;;;0.40;0.40;;;8.10;1.00;;;;;;5091078;28;20756;-69
2023/01/02 04:05:13;;;;;;;0.67;0.67;;;8.10;1.00;;;;;;5089865;28;20430;-69
2023/01/02 04:07:55;;;;;;;0.70;0.60;;;8.20;1.00;;;;;;5087284;28;20968;-69
2023/01/02 04:10:22;;;;;;;1.05;0.65;;;8.20;1.00;;;;;;5077624;28;20422;-69
2023/01/02 04:12:56;;;;;;;2.50;1.70;;;8.20;1.00;;;;;;5093703;28;20527;-69
2023/01/02 04:15:26;;;;;;;0.53;0.53;;;8.10;42.70;;;;;;5077424;28;20873;-69
2023/01/02 04:17:59;;;;;;;2.60;0.43;;;8.10;1.00;;;;;;5089427;28;20428;-69
2023/01/02 04:20:30;;;;;;;0.80;0.80;;;8.10;1.00;;;;;;5082075;28;20438;-69
2023/01/02 04:23:21;;;;;;;2.43;0.80;;;8.10;1.00;;;;;;5083112;28;20902;-69
2023/01/02 04:26:00;;;;;;;1.70;0.45;;;8.20;1.00;;;;;;5093344;28;20444;-69
2023/01/02 04:28:30;;;;;;;1.40;0.80;;;8.30;1.00;;;;;;5088893;28;20824;-69
2023/01/02 04:31:17;;;;;;;0.63;0.63;;;8.40;99.90;;;;;;5072402;28;20431;-69
2023/01/02 04:34:04;;;;;;;0.63;0.63;;;8.50;99.90;;;;;;5085537;28;20526;-69
2023/01/02 04:36:37;;;;;;;0.50;0.50;;;8.50;99.90;;;;;;5077257;28;20453;-69
2023/01/02 04:39:04;;;;;;;0.30;0.30;;;8.50;99.90;;;;;;5076281;28;20433;-69
2023/01/02 04:41:32;;;;;;;0.70;0.70;;;8.50;99.90;;;;;;5085443;28;20434;-69
2023/01/02 04:43:59;;;;;;;0.45;0.45;;;8.60;99.90;;;;;;5074673;28;20792;-69
2023/01/02 04:46:28;;;;;;;0.65;0.52;;;8.60;99.90;;;;;;5074766;28;20967;-69
2023/01/02 04:48:55;;;;;;;1.00;0.90;;;8.70;99.90;;;;;;5080277;28;20424;-69
2023/01/02 04:51:23;;;;;;;0.73;0.73;;;8.80;99.90;;;;;;5078591;28;20964;-69
2023/01/02 04:53:51;;;;;;;2.70;0.90;;;8.80;99.90;;;;;;5078958;28;20442;-69
2023/01/02 04:56:18;;;;;;;0.47;0.47;;;8.80;99.90;;;;;;5088845;28;20465;-69
2023/01/02 04:58:46;;;;;;;1.40;1.00;;;8.80;99.90;;;;;;5081867;28;20437;-69
2023/01/02 05:01:15;;;;;;;1.02;0.63;;;8.70;99.90;;;;;;5077531;28;20595;-69
2023/01/02 05:03:44;;;;;;;0.80;0.80;;;8.80;99.90;;;;;;5087694;28;20946;-69
2023/01/02 05:06:11;;;;;;;0.75;0.75;;;8.80;99.90;;;;;;5091914;28;20426;-69
2023/01/02 05:08:38;;;;;;;0.50;0.50;;;8.70;99.90;;;;;;5086082;28;20504;-69
2023/01/02 05:11:15;;;;;;;0.73;0.73;;;8.60;99.90;;;;;;5092357;28;20434;-69
2023/01/02 05:13:42;;;;;;;0.50;0.50;;;8.60;99.90;;;;;;5079831;28;20419;-69
2023/01/02 05:16:11;;;;;;;0.43;0.40;;;8.50;99.90;;;;;;5081260;28;20783;-69
2023/01/02 05:18:38;;;;;;;1.20;0.80;;;8.50;99.90;;;;;;5078463;28;20425;-69
2023/01/02 05:23:47;;;;;;;0.80;0.80;;;8.40;99.90;;;;;;5082059;28;20463;-69
2023/01/02 05:24:02;;;;;;;0.43;0.43;;;8.40;99.90;;;;;;5095883;28;20441;-69
2023/01/02 05:26:31;;;;;;;0.55;0.40;;;8.30;99.90;;;;;;5093894;28;20487;-69
2023/01/02 05:28:59;;;;;;;4.20;0.70;;;8.40;99.90;;;;;;5079584;28;20432;-69
2023/01/02 05:31:26;;;;;;;1.23;0.60;;;8.40;99.90;;;;;;5090600;28;20426;-69
2023/01/02 05:33:55;;;;;;;0.68;0.68;;;8.40;99.90;;;;;;5084354;28;20426;-69
2023/01/02 05:36:23;;;;;;;0.93;0.93;;;8.40;99.90;;;;;;5093052;28;20420;-69
2023/01/02 05:38:53;;;;;;;1.50;1.50;;;8.50;99.90;;;;;;5077763;28;20437;-69
2023/01/02 05:41:25;;;;;;;0.35;0.35;;;8.50;99.90;;;;;;5073510;28;20423;-69
2023/01/02 05:43:53;;;;;;;1.35;1.30;;;8.50;99.90;;;;;;5079321;28;20435;-69
2023/01/02 05:46:23;;;;;;;0.30;0.30;;;8.50;99.90;;;;;;5087156;28;20523;-69
2023/01/02 05:48:50;;;;;;;1.00;0.73;;;8.50;99.90;;;;;;5090377;28;20437;-69
2023/01/02 05:51:17;;;;;;;0.63;0.63;;;8.50;99.90;;;;;;5096376;28;20466;-69
2023/01/02 05:53:44;;;;;;;0.90;0.90;;;8.60;99.90;;;;;;5095713;28;20968;-69
2023/01/02 05:56:15;;;;;;;2.22;1.23;;;8.60;99.90;;;;;;5088538;28;20431;-69
2023/01/02 05:58:47;;;;;;;1.10;1.10;;;8.70;99.90;;;;;;5070889;28;20509;-69
2023/01/02 06:01:22;;;;;;;1.35;1.27;;;8.70;99.90;;;;;;5073393;28;20437;-69
2023/01/02 06:03:51;;;;;;;1.25;1.20;;;8.70;99.90;;;;;;5085479;28;21194;-69
2023/01/02 06:06:20;;;;;;;1.20;1.20;;;8.70;99.90;;;;;;5090292;28;20425;-69
2023/01/02 06:08:52;;;;;;;4.80;1.20;;;8.70;99.90;;;;;;5075555;28;20431;-69
2023/01/02 06:11:20;;;;;;;2.95;0.50;;;8.60;99.90;;;;;;5075299;28;20807;-69
2023/01/02 06:13:46;;;;;;;1.00;0.82;;;8.70;99.90;;;;;;5093560;28;20440;-69
2023/01/02 06:16:13;;;;;;;0.33;0.33;;;8.70;99.90;;;;;;5078494;28;20572;-69
2023/01/02 06:18:40;;;;;;;0.95;0.95;;;8.80;99.90;;;;;;5076739;28;20515;-69
2023/01/02 06:21:12;;;;;;;0.55;0.55;;;8.80;99.90;;;;;;5076759;28;20419;-69
2023/01/02 06:23:40;;;;;;;0.50;0.50;;;8.80;99.90;;;;;;5083008;28;20451;-69
2023/01/02 06:26:16;;;;;;;0.73;0.40;;;8.90;99.90;;;;;;5078460;28;20424;-69
2023/01/02 06:28:57;;;;;;;1.60;1.05;;;9.00;99.90;;;;;;5089736;28;20436;-69
2023/01/02 06:31:26;;;;;;;1.40;0.52;;;9.10;99.90;;;;;;5075773;28;20502;-69
2023/01/02 06:33:57;;;;;;;0.40;0.40;;;9.10;99.90;;;;;;5090305;28;20437;-69
2023/01/02 06:36:32;;;;;;;0.52;0.52;;;9.10;99.90;;;;;;5077601;28;20419;-69
2023/01/02 06:38:59;;;;;;;2.05;0.90;;;9.20;99.90;;;;;;5082052;28;20425;-69
2023/01/02 06:41:26;;;;;;;1.83;0.60;;;9.20;99.90;;;;;;5077218;28;20435;-69
2023/01/02 06:43:53;;;;;;;0.77;0.77;;;9.30;99.90;;;;;;5089725;28;20434;-69
2023/01/02 06:46:22;;;;;;;0.77;0.75;;;9.30;99.90;;;;;;5081266;28;20441;-69
2023/01/02 06:48:49;;;;;;;0.90;0.60;;;9.30;99.90;;;;;;5086648;28;20526;-69
2023/01/02 06:51:20;;;;;;;2.67;1.20;;;9.40;99.90;;;;;;5079457;28;20437;-69
2023/01/02 06:53:47;;;;;;;0.63;0.63;;;9.40;99.90;;;;;;5087040;28;20521;-69
2023/01/02 06:56:18;;;;;;;0.95;0.95;;;9.40;99.90;;;;;;5086642;28;20426;-69
2023/01/02 06:58:46;;;;;;;0.35;0.35;;;9.40;99.90;;;;;;5083424;28;20433;-69
2023/01/02 07:01:20;;;;;;;0.63;0.63;;;9.40;99.90;;;;;;5072849;28;20445;-69
2023/01/02 07:03:48;;;;;;;0.55;0.55;;;9.30;99.90;;;;;;5084859;28;20493;-69
2023/01/02 07:06:19;;;;;;;0.60;0.38;;;9.30;99.90;;;;;;5083373;28;20511;-69
2023/01/02 07:08:46;;;;;;;1.92;0.85;;;9.30;99.90;;;;;;5091136;28;20456;-69
2023/01/02 07:11:18;;;;;;;0.63;0.63;;;9.20;99.90;;;;;;5093258;28;20430;-69
2023/01/02 07:13:47;;;;;;;0.47;0.47;;;9.20;99.90;;;;;;5090239;28;20432;-69
2023/01/02 07:16:16;;;;;;;1.60;0.80;;;9.20;99.90;;;;;;5089491;28;20433;-69
2023/01/02 07:18:43;;;;;;;1.60;0.60;;;9.20;99.90;;;;;;5088135;28;20926;-69
2023/01/02 07:21:14;;;;;;;0.47;0.28;;;9.20;99.90;;;;;;5083058;28;20510;-69
2023/01/02 07:23:41;;;;;;;1.33;0.85;;;9.20;99.90;;;;;;5087622;28;20465;-69
2023/01/02 07:26:09;;;;;;;0.40;0.40;;;9.10;99.90;;;;;;5073074;28;20431;-69
2023/01/02 07:28:36;;;;;;;0.40;0.40;;;9.20;99.90;;;;;;5084813;28;20455;-69
2023/01/02 07:31:21;;;;;;;0.80;0.52;;;9.20;99.90;;;;;;5084825;28;20436;-69
2023/01/02 07:33:48;;;;;;;1.00;0.70;;;9.10;99.90;;;;;;5085424;28;20428;-69
2023/01/02 07:36:18;;;;;;;0.80;0.63;;;9.10;99.90;;;;;;5089485;28;20900;-69
2023/01/02 07:38:52;;;;;;;0.43;0.43;;;9.10;99.90;;;;;;5087117;28;20423;-69
2023/01/02 07:41:22;;;;;;;3.30;0.70;;;9.10;99.90;;;;;;5087186;28;20473;-69
2023/01/02 07:43:49;;;;;;;1.95;0.52;;;9.20;99.90;;;;;;5086063;28;20438;-69
2023/01/02 07:46:18;;;;;;;0.70;0.55;;;9.20;99.90;;;;;;5083834;28;20422;-69
2023/01/02 07:48:46;;;;;;;0.68;0.68;;;9.30;99.90;;;;;;5089471;28;20434;-69
2023/01/02 07:51:13;;;;;;;1.15;0.50;;;9.30;99.90;;;;;;5081364;28;20431;-69
2023/01/02 07:53:44;;;;;;;1.38;0.52;;;9.40;99.90;;;;;;5080586;28;20535;-69
2023/01/02 07:56:11;;;;;;;0.70;0.50;;;9.40;99.90;;;;;;5084356;28;20494;-69
2023/01/02 07:58:37;;;;;;;5.63;1.33;;;9.50;99.90;;;;;;5092996;28;20778;-71
2023/01/02 08:01:06;;;;;;;0.30;0.30;;;9.60;99.90;;;;;;5088897;28;20431;-69
2023/01/02 08:03:34;;;;;;;1.40;0.60;;;9.70;99.90;;;;;;5087632;28;20428;-69
2023/01/02 08:06:26;;;;;;;0.25;0.22;;;9.80;99.90;;;;;;5078904;28;20932;-69
2023/01/02 08:08:53;;;;;;;0.30;0.30;;;9.90;99.90;;;;;;5080827;28;20970;-68
2023/01/02 08:11:21;;;;;;;0.40;0.40;;;10.00;99.90;;;;;;5074173;28;20436;-69
2023/01/02 08:13:48;;;;;;;0.57;0.47;;;10.00;99.90;;;;;;5072769;28;20925;-72
2023/01/02 08:16:20;;;;;;;1.30;0.50;;;10.10;99.90;;;;;;5083414;28;20515;-67
2023/01/02 08:18:50;;;;;;;0.65;0.65;;;10.10;99.90;;;;;;5075794;28;20431;-68
2023/01/02 08:21:17;;;;;;;1.10;0.50;;;10.20;99.90;;;;;;5088568;28;20432;-68
2023/01/02 08:23:44;;;;;;;1.20;0.80;;;10.20;99.90;;;;;;5087345;28;20455;-67
2023/01/02 08:26:11;;;;;;;0.32;0.25;;;10.20;99.90;;;;;;5079240;28;20914;-67
2023/01/02 08:28:39;;;;;;;0.70;0.60;;;10.20;99.90;;;;;;5083341;28;20493;-67
2023/01/02 08:31:14;;;;;;;0.43;0.43;;;10.30;99.90;;;;;;5076336;28;20471;-68
2023/01/02 08:33:41;;;;;;;0.47;0.47;;;10.40;99.90;;;;;;5089010;28;20910;-67
2023/01/02 08:36:09;;;;;;;0.50;0.50;;;10.40;99.90;;;;;;5090661;28;20422;-67
2023/01/02 08:38:36;;;;;;;1.30;0.23;;;10.40;99.90;;;;;;5091200;28;20434;-67
2023/01/02 08:41:04;;;;;;;0.70;0.50;;;10.50;99.90;;;;;;5070062;28;20518;-67
2023/01/02 08:43:34;;;;;;;3.00;0.70;;;10.50;99.90;;;;;;5082879;28;20866;-67
2023/01/02 08:46:06;;;;;;;0.95;0.88;;;10.60;99.90;;;;;;5088670;28;20441;-67
2023/01/02 08:48:34;;;;;;;0.40;0.40;;;10.60;99.90;;;;;;5097462;28;20430;-67
2023/01/02 08:51:01;;;;;;;1.58;0.30;;;10.70;99.90;;;;;;5090587;28;21019;-67
2023/01/02 08:53:31;;;;;;;0.68;0.65;;;10.80;99.90;;;;;;5088241;28;20428;-67
2023/01/02 08:56:34;;;;;;;0.50;0.50;;;10.80;99.90;;;;;;5081121;28;20445;-68
2023/01/02 08:59:07;;;;;;;1.50;0.95;;;10.80;99.90;;;;;;5061755;28;20501;-67
2023/01/02 09:01:34;;;;;;;0.30;0.30;;;10.80;99.90;;;;;;5066631;28;20428;-67
2023/01/02 09:04:02;;;;;;;1.50;0.50;;;10.80;99.90;;;;;;5064684;28;20463;-67
2023/01/02 09:06:39;;;;;;;0.53;0.53;;;10.80;99.90;;;;;;5065985;28;20465;-67
2023/01/02 09:09:09;;;;;;;0.40;0.40;;;10.70;99.90;;;;;;5061375;28;20846;-67
2023/01/02 09:11:49;;;;;;;1.00;0.50;;;10.70;99.90;;;;;;5063584;28;20424;-67
2023/01/02 09:14:18;;;;;;;2.60;0.67;;;10.70;99.90;;;;;;5044637;28;20459;-67
2023/01/02 09:16:51;;;;;;;1.60;0.57;;;10.70;99.90;;;;;;5061483;28;20837;-67
2023/01/02 09:19:18;;;;;;;0.45;0.45;;;10.80;99.90;;;;;;5065600;28;20469;-67
2023/01/02 09:21:45;;;;;;;0.20;0.20;;;10.80;99.90;;;;;;5064634;28;20419;-67
2023/01/02 09:24:14;;;;;;;0.50;0.50;;;10.90;99.90;;;;;;5065162;28;20530;-67
2023/01/02 09:26:41;;;;;;;0.55;0.55;;;11.00;99.90;;;;;;5064023;28;20429;-67
2023/01/02 09:29:10;;;;;;;2.00;1.05;;;11.00;99.90;;;;;;5062969;28;20439;-67
2023/01/02 09:31:38;;;;;;;0.50;0.50;;;11.20;99.90;;;;;;5070477;28;20461;-67
2023/01/02 09:34:07;;;;;;;1.20;0.70;;;11.30;99.90;;;;;;5086144;28;20428;-67
2023/01/02 09:36:35;;;;;;;0.70;0.55;;;11.40;99.90;;;;;;5081695;28;20424;-67
2023/01/02 09:39:03;;;;;;;0.20;0.20;;;11.50;99.90;;;;;;5077703;28;20534;-67
2023/01/02 09:41:30;;;;;;;0.40;0.35;;;11.60;99.90;;;;;;5090054;28;20456;-68
2023/01/02 09:44:04;;;;;;;2.10;0.80;;;11.60;99.90;;;;;;5088602;28;20420;-67
2023/01/02 09:46:36;;;;;;;1.00;0.60;;;11.60;99.90;;;;;;5080332;28;20437;-67
2023/01/02 09:49:03;;;;;;;1.90;0.38;;;11.60;99.90;;;;;;5091731;28;20434;-67
2023/01/02 09:51:31;;;;;;;0.70;0.52;;;11.60;99.90;;;;;;5087212;28;20460;-67
2023/01/02 09:53:58;;;;;;;0.15;0.15;;;11.60;99.90;;;;;;5096381;28;20551;-67
2023/01/02 09:56:39;;;;;;;0.25;0.25;;;11.60;99.90;;;;;;5093823;28;20422;-68
2023/01/02 09:59:15;;;;;;;0.55;0.55;;;11.70;99.90;;;;;;5086968;28;20440;-67
2023/01/02 10:01:58;;;;;;;0.17;0.17;;;11.70;99.90;;;;;;5086159;28;20930;-67
2023/01/02 10:04:44;;;;;;;0.40;0.32;;;11.80;99.90;;;;;;5095688;28;20437;-67
2023/01/02 10:07:26;;;;;;;0.50;0.50;;;11.90;99.90;;;;;;5088819;28;20844;-67
2023/01/02 10:10:25;;;;;;;2.00;0.60;;;11.90;99.90;;;;;;5082892;28;20434;-67
2023/01/02 10:13:10;;;;;;;0.40;0.40;;;11.90;99.90;;;;;;5081415;28;20474;-67
2023/01/02 10:15:43;;;;;;;1.00;0.60;;;11.90;99.90;;;;;;5083917;28;20513;-67
2023/01/02 10:18:40;;;;;;;0.70;0.70;;;11.90;99.90;;;;;;5085784;28;20546;-67
2023/01/02 10:21:13;;;;;;;0.30;0.30;;;12.00;99.90;;;;;;5078356;28;20439;-67
2023/01/02 10:23:48;;;;;;;0.40;0.40;;;12.00;99.90;;;;;;5075867;28;20457;-68
2023/01/02 10:26:17;;;;;;;0.32;0.32;;;12.00;99.90;;;;;;5075302;28;20482;-67
2023/01/02 10:28:51;;;;;;;4.65;0.45;;;12.00;99.90;;;;;;5090537;28;20439;-67
2023/01/02 10:31:28;;;;;;;0.50;0.40;;;12.00;99.90;;;;;;5086761;28;20442;-67
2023/01/02 10:33:58;;;;;;;1.50;0.30;;;12.00;99.90;;;;;;5079730;28;20447;-67
2023/01/02 10:36:38;;;;;;;0.35;0.25;;;12.00;99.90;;;;;;5088348;28;20448;-67
2023/01/02 10:39:08;;;;;;;1.20;0.60;;;12.00;99.90;;;;;;5090226;28;20510;-67
2023/01/02 10:41:46;;;;;;;0.35;0.35;;;12.00;99.90;;;;;;5089642;28;20523;-67
2023/01/02 10:44:21;;;;;;;0.43;0.43;;;12.00;99.90;;;;;;5077226;28;20423;-67
2023/01/02 10:46:48;;;;;;;0.60;0.60;;;12.00;99.90;;;;;;5090798;28;20505;-67
2023/01/02 10:49:15;;;;;;;2.75;0.68;;;12.10;99.90;;;;;;5088692;28;20422;-67
2023/01/02 10:51:48;;;;;;;1.75;0.68;;;12.20;99.90;;;;;;5079062;28;20940;-66
2023/01/02 10:54:18;;;;;;;0.60;0.52;;;12.20;99.90;;;;;;5096868;28;20417;-65
2023/01/02 10:56:48;;;;;;;5.05;0.85;;;12.20;99.90;;;;;;5093087;28;20420;-66
2023/01/02 10:59:26;;;;;;;0.60;0.60;;;12.10;99.90;;;;;;5091474;28;20440;-66
2023/01/02 11:01:58;;;;;;;5.13;0.98;;;12.00;99.90;;;;;;5075049;28;20501;-67
2023/01/02 11:04:29;;;;;;;0.43;0.43;;;12.00;99.90;;;;;;5079466;28;20522;-67
2023/01/02 11:06:59;;;;;;;0.27;0.27;;;11.90;99.90;;;;;;5092093;28;20424;-66
2023/01/02 11:09:32;;;;;;;0.57;0.57;;;11.80;99.90;;;;;;5086826;28;20427;-67
2023/01/02 11:12:11;;;;;;;2.20;0.75;;;11.70;99.90;;;;;;5089828;28;20943;-66
2023/01/02 11:14:38;;;;;;;1.70;0.73;;;11.70;99.90;;;;;;5073275;28;20436;-67
2023/01/02 11:17:25;;;;;;;0.60;0.50;;;11.60;99.90;;;;;;5083345;28;20499;-67
2023/01/02 11:19:55;;;;;;;0.30;0.30;;;11.60;99.90;;;;;;5086864;28;20432;-66
2023/01/02 11:22:34;;;;;;;0.30;0.30;;;11.50;99.90;;;;;;5082018;28;20436;-67
2023/01/02 11:25:04;;;;;;;0.30;0.30;;;11.50;99.90;;;;;;5078982;28;20434;-66
2023/01/02 11:27:40;;;;;;;0.32;0.32;;;11.70;99.90;;;;;;5072257;28;20443;-67
2023/01/02 11:30:22;;;;;;;0.57;0.52;;;11.80;99.90;;;;;;5076777;28;20469;-67
2023/01/02 11:33:01;;;;;;;0.93;0.70;;;11.80;99.90;;;;;;5075852;28;20439;-67
2023/01/02 11:35:36;;;;;;;0.40;0.40;;;11.70;99.90;;;;;;5084547;28;20446;-67
2023/01/02 11:38:03;;;;;;;0.80;0.50;;;11.70;99.90;;;;;;5082349;28;20434;-67
2023/01/02 11:40:31;;;;;;;0.47;0.47;;;11.60;99.90;;;;;;5087231;28;20432;-67
2023/01/02 11:45:57;;;;;;;2.10;0.90;;;11.70;99.90;;;;;;5088381;28;20463;-67
2023/01/02 11:48:24;;;;;;;3.60;0.50;;;11.70;99.90;;;;;;5080193;28;20464;-67
2023/01/02 11:50:51;;;;;;;0.57;0.57;;;11.70;99.90;;;;;;5085334;28;20425;-67
2023/01/02 11:53:35;;;;;;;0.20;0.20;;;11.70;99.90;;;;;;5084129;28;20492;-69
2023/01/02 11:56:07;;;;;;;3.90;0.40;;;11.90;99.90;;;;;;5080248;28;20428;-69
2023/01/02 11:59:03;;;;;;;0.20;0.20;;;11.90;99.90;;;;;;5082790;28;20541;-69
2023/01/02 12:01:45;;;;;;;0.35;0.35;;;12.00;99.90;;;;;;5084882;28;20424;-69
2023/01/02 12:04:13;;;;;;;1.10;0.40;;;12.10;99.90;;;;;;5083363;28;20475;-69
2023/01/02 12:07:13;;;;;;;0.30;0.30;;;12.10;99.90;;;;;;5080688;28;20437;-69
2023/01/02 12:09:52;;;;;;;0.63;0.63;;;12.10;99.90;;;;;;5081916;28;20445;-69
2023/01/02 12:12:37;;;;;;;0.98;0.93;;;12.10;99.90;;;;;;5077835;28;20435;-69
2023/01/02 12:15:07;;;;;;;0.40;0.40;;;12.10;99.90;;;;;;5084618;28;20439;-69
2023/01/02 12:17:43;;;;;;;0.30;0.30;;;12.00;99.90;;;;;;5090097;28;20430;-69
2023/01/02 12:20:09;;;;;;;0.40;0.40;;;12.00;99.90;;;;;;5085667;28;20499;-69
2023/01/02 12:22:42;;;;;;;1.60;0.53;;;11.90;99.90;;;;;;5092286;28;20530;-69
2023/01/02 12:25:37;;;;;;;2.90;0.47;;;11.90;99.90;;;;;;5081754;28;20446;-69
2023/01/02 12:28:12;;;;;;;1.90;0.50;;;11.90;99.90;;;;;;5090555;28;20424;-69
2023/01/02 12:31:30;;;;;;;1.00;0.75;;;11.90;99.90;;;;;;5087361;28;20438;-69
2023/01/02 12:34:24;;;;;;;0.50;0.50;;;11.90;99.90;;;;;;5069080;28;20445;-69
2023/01/02 12:37:38;;;;;;;0.47;0.38;;;11.90;99.90;;;;;;5081451;28;21665;-69
2023/01/02 12:40:14;;;;;;;0.90;0.60;;;11.90;99.90;;;;;;5050406;28;20427;-69
2023/01/02 12:42:59;;;;;;;0.57;0.57;;;11.90;99.90;;;;;;5051755;28;20436;-69
2023/01/02 12:45:40;;;;;;;0.77;0.77;;;11.80;99.90;;;;;;5046023;28;20939;-69
2023/01/02 12:48:32;;;;;;;1.35;0.55;;;11.70;99.90;;;;;;5040344;28;20965;-69
2023/01/02 12:51:16;;;;;;;0.30;0.30;;;11.60;99.90;;;;;;5048510;28;20495;-69
2023/01/02 12:54:12;;;;;;;3.58;0.63;;;11.50;99.90;;;;;;5052339;28;20477;-70
2023/01/02 12:57:10;;;;;;;1.20;0.70;;;11.50;99.90;;;;;;5010171;28;21111;-69
2023/01/02 13:00:08;;;;;;;1.30;0.70;;;11.50;99.90;;;;;;5005098;28;20475;-69
2023/01/02 13:02:56;;;;;;;4.10;0.70;;;11.60;99.90;;;;;;5012583;28;20521;-68
2023/01/02 13:05:35;;;;;;;1.00;0.30;;;11.70;99.90;;;;;;5011734;28;20515;-68
2023/01/02 13:08:14;;;;;;;1.92;0.82;;;11.70;99.90;;;;;;5012867;28;20432;-68
2023/01/02 13:10:44;;;;;;;0.32;0.32;;;11.60;99.90;;;;;;5013857;28;20419;-68
2023/01/02 13:13:14;;;;;;;0.70;0.70;;;11.60;99.90;;;;;;5026241;28;20434;-68
2023/01/02 13:15:53;;;;;;;0.38;0.38;;;11.70;99.90;;;;;;5030513;28;20444;-66
2023/01/02 13:18:58;;;;;;;7.60;0.63;;;11.70;99.90;;;;;;5035766;28;20431;-68
2023/01/02 13:21:38;;;;;;;0.20;0.20;;;11.70;99.90;;;;;;5020653;28;20471;-68
2023/01/02 13:24:10;;;;;;;0.50;0.50;;;11.80;99.90;;;;;;5031282;28;20502;-66
2023/01/02 13:26:38;;;;;;;0.52;0.52;;;11.70;99.90;;;;;;5032964;28;20489;-66
2023/01/02 13:29:08;;;;;;;0.30;0.30;;;11.80;99.90;;;;;;5015143;28;20499;-67